createdAt,value
2022-08-04T00:00:04.350Z,3.58
2022-08-04T00:02:53.879Z,3.50
2022-08-04T00:06:02.879Z,3.45
2022-08-04T00:08:44.141Z,3.90
2022-08-04T00:11:15.600Z,3.30
2022-08-04T00:13:54.241Z,3.28
2022-08-04T00:16:37.536Z,3.60
2022-08-04T00:19:10.606Z,3.40
2022-08-04T00:21:41.724Z,3.60
2022-08-04T00:24:10.971Z,3.20
2022-08-04T00:26:40.286Z,3.72
2022-08-04T00:29:07.479Z,3.25
2022-08-04T00:31:54.678Z,3.38
2022-08-04T00:34:21.724Z,2.85
2022-08-04T00:36:48.955Z,3.30
2022-08-04T00:39:19.538Z,3.30
2022-08-04T00:42:18.748Z,2.90
2022-08-04T00:44:57.804Z,4.03
2022-08-04T00:47:51.087Z,3.47
2022-08-04T00:50:18.245Z,3.47
2022-08-04T00:53:06.508Z,3.67
2022-08-04T00:55:48.031Z,3.63
2022-08-04T00:58:16.431Z,3.60
2022-08-04T01:01:03.207Z,3.00
2022-08-04T01:03:35.968Z,3.72
2022-08-04T01:06:17.340Z,3.72
2022-08-04T01:09:03.787Z,3.88
2022-08-04T01:11:56.289Z,3.78
2022-08-04T01:14:51.783Z,3.67
2022-08-04T01:17:28.458Z,3.83
2022-08-04T01:20:09.889Z,3.90
2022-08-04T01:23:20.962Z,3.60
2022-08-04T01:25:57.581Z,3.63
2022-08-04T01:28:42.845Z,3.65
2022-08-04T01:31:34.871Z,3.33
2022-08-04T01:34:06.044Z,3.60
2022-08-04T01:36:35.781Z,3.35
2022-08-04T01:41:58.369Z,3.63
2022-08-04T01:44:28.914Z,3.85
2022-08-04T01:46:55.701Z,3.47
2022-08-04T01:49:24.847Z,3.67
2022-08-04T01:51:52.249Z,3.53
2022-08-04T01:54:19.492Z,3.92
2022-08-04T01:56:49.306Z,3.70
2022-08-04T01:59:19.168Z,3.65
2022-08-04T02:04:23.400Z,2.47
2022-08-04T02:07:03.624Z,3.80
2022-08-04T02:09:56.517Z,3.55
2022-08-04T02:12:41.142Z,4.20
2022-08-04T02:15:40.752Z,4.05
2022-08-04T02:18:30.541Z,4.00
2022-08-04T02:21:02.123Z,3.60
2022-08-04T02:23:41.092Z,3.75
2022-08-04T02:26:19.350Z,3.80
2022-08-04T02:29:18.643Z,3.80
2022-08-04T02:32:05.320Z,3.72
2022-08-04T02:34:54.272Z,4.30
2022-08-04T02:37:21.938Z,3.88
2022-08-04T02:39:54.031Z,3.53
2022-08-04T02:42:21.864Z,4.40
2022-08-04T02:44:50.933Z,3.90
2022-08-04T02:47:22.139Z,3.25
2022-08-04T02:49:51.560Z,3.67
2022-08-04T02:52:20.867Z,3.60
2022-08-04T02:54:51.055Z,3.78
2022-08-04T02:57:18.845Z,3.72
2022-08-04T03:00:11.647Z,3.75
2022-08-04T03:02:55.735Z,3.70
2022-08-04T03:05:32.614Z,3.80
2022-08-04T03:08:19.695Z,4.07
2022-08-04T03:11:07.538Z,3.78
2022-08-04T03:13:55.568Z,4.65
2022-08-04T03:16:31.227Z,3.60
2022-08-04T03:19:23.556Z,4.07
2022-08-04T03:22:19.594Z,4.07
2022-08-04T03:25:08.437Z,3.65
2022-08-04T03:27:43.993Z,3.90
2022-08-04T03:30:33.933Z,3.40
2022-08-04T03:33:25.596Z,4.00
2022-08-04T03:35:52.705Z,3.55
2022-08-04T03:38:57.364Z,3.67
2022-08-04T03:41:51.867Z,3.70
2022-08-04T03:44:54.777Z,3.85
2022-08-04T03:47:56.329Z,3.63
2022-08-04T03:50:41.819Z,3.75
2022-08-04T03:53:28.724Z,3.70
2022-08-04T03:56:33.562Z,3.72
2022-08-04T03:59:36.618Z,3.80
2022-08-04T04:02:37.122Z,4.10
2022-08-04T04:05:32.991Z,3.90
2022-08-04T04:08:11.546Z,4.20
2022-08-04T04:11:00.348Z,4.07
2022-08-04T04:13:56.257Z,3.90
2022-08-04T04:16:45.589Z,4.40
2022-08-04T04:19:43.187Z,3.75
2022-08-04T04:22:50.091Z,3.90
2022-08-04T04:25:25.940Z,3.78
2022-08-04T04:28:44.384Z,3.88
2022-08-04T04:31:11.975Z,3.47
2022-08-04T04:34:06.403Z,3.78
2022-08-04T04:37:11.416Z,3.22
2022-08-04T04:39:47.603Z,4.55
2022-08-04T04:42:14.228Z,3.70
2022-08-04T04:45:12.632Z,4.20
2022-08-04T04:48:09.047Z,3.92
2022-08-04T04:51:16.085Z,4.13
2022-08-04T04:53:59.883Z,4.10
2022-08-04T04:56:58.736Z,3.97
2022-08-04T04:59:32.890Z,4.00
2022-08-04T05:02:06.497Z,3.88
2022-08-04T05:05:04.376Z,3.90
2022-08-04T05:07:46.608Z,3.28
2022-08-04T05:14:34.753Z,3.90
2022-08-04T05:16:41.467Z,3.70
2022-08-04T05:19:34.046Z,4.25
2022-08-04T05:22:09.183Z,3.67
2022-08-04T05:24:41.564Z,3.78
2022-08-04T05:27:14.965Z,3.80
2022-08-04T05:29:53.022Z,4.18
2022-08-04T05:32:26.589Z,3.72
2022-08-04T05:34:59.043Z,3.85
2022-08-04T05:37:30.375Z,3.70
2022-08-04T05:40:00.728Z,3.83
2022-08-04T05:42:28.363Z,4.20
2022-08-04T05:44:55.997Z,4.25
2022-08-04T05:47:24.355Z,3.97
2022-08-04T05:50:01.324Z,3.80
2022-08-04T05:52:30.977Z,3.72
2022-08-04T05:54:59.277Z,3.60
2022-08-04T05:57:26.775Z,4.53
2022-08-04T05:59:57.390Z,4.07
2022-08-04T06:02:25.395Z,3.90
2022-08-04T06:04:53.055Z,3.83
2022-08-04T06:07:20.414Z,4.10
2022-08-04T06:09:47.954Z,4.05
2022-08-04T06:12:56.747Z,4.30
2022-08-04T06:15:25.556Z,3.75
2022-08-04T06:18:35.416Z,4.53
2022-08-04T06:20:50.150Z,4.22
2022-08-04T06:23:20.683Z,4.25
2022-08-04T06:25:50.966Z,4.30
2022-08-04T06:28:20.379Z,3.63
2022-08-04T06:30:49.802Z,3.67
2022-08-04T06:33:27.901Z,4.60
2022-08-04T06:35:56.694Z,3.80
2022-08-04T06:38:25.174Z,3.85
2022-08-04T06:40:52.562Z,3.50
2022-08-04T06:43:20.785Z,3.70
2022-08-04T06:45:49.407Z,3.80
2022-08-04T06:48:18.009Z,3.40
2022-08-04T06:51:32.924Z,3.30
2022-08-04T06:53:35.967Z,3.22
2022-08-04T06:56:03.511Z,2.80
2022-08-04T06:58:33.095Z,3.05
2022-08-04T07:03:30.764Z,2.70
2022-08-04T07:05:58.240Z,2.90
2022-08-04T07:08:25.396Z,2.72
2022-08-04T07:10:53.371Z,2.90
2022-08-04T07:13:22.130Z,2.70
2022-08-04T07:15:49.782Z,2.60
2022-08-04T07:18:17.115Z,2.55
2022-08-04T07:20:45.521Z,2.95
2022-08-04T07:23:21.356Z,2.97
2022-08-04T07:26:11.266Z,2.55
2022-08-04T07:28:39.850Z,2.08
2022-08-04T07:31:09.456Z,2.08
2022-08-04T07:33:36.752Z,2.38
2022-08-04T07:36:11.664Z,2.17
2022-08-04T07:38:48.082Z,2.28
2022-08-04T07:41:41.383Z,2.30
2022-08-04T07:44:10.355Z,2.22
2022-08-04T07:46:37.923Z,2.70
2022-08-04T07:49:06.536Z,2.55
2022-08-04T07:51:35.520Z,2.67
2022-08-04T07:54:03.935Z,2.40
2022-08-04T07:56:31.444Z,2.38
2022-08-04T07:59:00.072Z,2.03
2022-08-04T08:01:27.264Z,2.30
2022-08-04T08:03:56.693Z,2.30
2022-08-04T08:06:33.367Z,2.63
2022-08-04T08:09:13.575Z,3.10
2022-08-04T08:12:38.549Z,2.35
2022-08-04T08:14:35.498Z,2.63
2022-08-04T08:17:03.176Z,2.75
2022-08-04T08:19:31.246Z,2.40
2022-08-04T08:22:00.776Z,2.40
2022-08-04T08:24:35.479Z,2.22
2022-08-04T08:27:06.809Z,2.38
2022-08-04T08:29:35.642Z,2.30
2022-08-04T08:32:08.090Z,2.63
2022-08-04T08:34:35.649Z,2.45
2022-08-04T08:37:12.317Z,2.63
2022-08-04T08:39:45.980Z,2.22
2022-08-04T08:42:42.338Z,2.15
2022-08-04T08:45:33.178Z,2.30
2022-08-04T08:48:40.773Z,2.80
2022-08-04T08:51:37.533Z,2.15
2022-08-04T08:54:42.553Z,2.00
2022-08-04T08:57:20.238Z,2.45
2022-08-04T09:00:16.792Z,2.20
2022-08-04T09:03:06.729Z,2.30
2022-08-04T09:05:40.419Z,2.20
2022-08-04T09:08:41.217Z,2.10
2022-08-04T09:11:18.858Z,2.00
2022-08-04T09:13:50.670Z,2.20
2022-08-04T09:16:42.523Z,2.20
2022-08-04T09:19:37.348Z,2.47
2022-08-04T09:22:43.841Z,2.05
2022-08-04T09:25:34.672Z,2.30
2022-08-04T09:28:09.580Z,2.15
2022-08-04T09:30:47.246Z,2.28
2022-08-04T09:33:56.536Z,2.13
2022-08-04T09:36:42.165Z,2.33
2022-08-04T09:39:09.955Z,1.92
2022-08-04T09:41:55.953Z,2.05
2022-08-04T09:45:03.399Z,2.33
2022-08-04T09:47:45.331Z,2.15
2022-08-04T09:50:35.865Z,2.30
2022-08-04T09:53:45.056Z,2.60
2022-08-04T09:56:28.465Z,2.10
2022-08-04T09:59:14.018Z,2.00
2022-08-04T10:01:43.414Z,2.42
2022-08-04T10:04:13.763Z,1.98
2022-08-04T10:07:11.707Z,2.10
2022-08-04T10:10:16.611Z,2.08
2022-08-04T10:13:15.480Z,2.55
2022-08-04T10:16:11.652Z,1.95
2022-08-04T10:18:55.666Z,1.92
2022-08-04T10:21:31.615Z,2.10
2022-08-04T10:24:17.170Z,2.15
2022-08-04T10:26:58.484Z,2.08
2022-08-04T10:29:36.424Z,2.05
2022-08-04T10:32:21.552Z,2.15
2022-08-04T10:35:00.208Z,1.90
2022-08-04T10:37:54.606Z,1.85
2022-08-04T10:40:38.268Z,1.90
2022-08-04T10:43:32.688Z,2.10
2022-08-04T10:46:02.408Z,2.00
2022-08-04T10:48:58.999Z,1.90
2022-08-04T10:51:57.236Z,2.50
2022-08-04T10:54:33.245Z,1.75
2022-08-04T10:57:08.494Z,1.77
2022-08-04T10:59:45.914Z,2.25
2022-08-04T11:02:27.036Z,2.30
2022-08-04T11:05:04.897Z,1.67
2022-08-04T11:07:36.006Z,1.83
2022-08-04T11:10:02.834Z,1.95
2022-08-04T11:12:30.450Z,1.83
2022-08-04T11:15:09.088Z,1.60
2022-08-04T11:17:40.665Z,2.20
2022-08-04T11:20:41.182Z,2.08
2022-08-04T11:23:13.956Z,1.85
2022-08-04T11:26:02.102Z,1.75
2022-08-04T11:29:03.915Z,1.98
2022-08-04T11:31:43.141Z,1.90
2022-08-04T11:34:28.507Z,1.73
2022-08-04T11:37:14.567Z,2.03
2022-08-04T11:39:59.721Z,2.05
2022-08-04T11:42:37.773Z,2.15
2022-08-04T11:45:17.480Z,1.90
2022-08-04T11:47:54.014Z,2.20
2022-08-04T11:50:23.863Z,1.70
2022-08-04T11:52:53.772Z,1.63
2022-08-04T11:55:22.389Z,2.00
2022-08-04T11:57:54.068Z,2.20
2022-08-04T12:00:22.816Z,1.98
2022-08-04T12:03:01.123Z,1.63
2022-08-04T12:05:36.884Z,1.88
2022-08-04T12:08:23.085Z,1.85
2022-08-04T12:11:06.082Z,1.90
2022-08-04T12:14:01.494Z,2.10
2022-08-04T12:16:38.902Z,2.30
2022-08-04T12:19:23.921Z,2.10
2022-08-04T12:21:56.810Z,2.40
2022-08-04T12:24:44.719Z,1.73
2022-08-04T12:27:20.470Z,2.20
2022-08-04T12:31:02.220Z,1.92
2022-08-04T12:32:53.746Z,1.95
2022-08-04T12:35:38.224Z,2.15
2022-08-04T12:38:28.905Z,2.00
2022-08-04T12:40:58.193Z,2.22
2022-08-04T12:43:27.532Z,2.30
2022-08-04T12:45:57.859Z,2.33
2022-08-04T12:48:26.764Z,2.65
2022-08-04T12:50:55.812Z,2.05
2022-08-04T12:53:31.891Z,2.10
2022-08-04T12:56:02.346Z,2.25
2022-08-04T12:58:41.952Z,2.28
2022-08-04T13:02:10.204Z,2.20
2022-08-04T13:04:10.055Z,1.98
2022-08-04T13:06:39.283Z,2.22
2022-08-04T13:09:19.422Z,2.10
2022-08-04T13:11:59.204Z,2.10
2022-08-04T13:14:33.234Z,2.40
2022-08-04T13:17:01.253Z,2.03
2022-08-04T13:19:30.609Z,2.03
2022-08-04T13:22:02.858Z,1.88
2022-08-04T13:24:33.655Z,2.00
2022-08-04T13:27:08.930Z,1.92
2022-08-04T13:30:00.506Z,1.98
2022-08-04T13:32:26.463Z,2.10
2022-08-04T13:34:55.242Z,2.03
2022-08-04T13:37:27.543Z,1.88
2022-08-04T13:39:57.372Z,2.00
2022-08-04T13:42:26.275Z,2.00
2022-08-04T13:44:59.037Z,1.70
2022-08-04T13:47:30.388Z,2.20
2022-08-04T13:50:15.314Z,1.83
2022-08-04T13:52:43.846Z,2.13
2022-08-04T13:55:32.811Z,2.28
2022-08-04T13:58:03.561Z,1.75
2022-08-04T14:01:08.239Z,1.70
2022-08-04T14:03:53.928Z,1.92
2022-08-04T14:06:25.741Z,2.08
2022-08-04T14:09:06.007Z,2.15
2022-08-04T14:12:06.615Z,2.13
2022-08-04T14:14:31.837Z,2.08
2022-08-04T14:17:05.460Z,1.90
2022-08-04T14:19:55.878Z,2.03
2022-08-04T14:22:25.600Z,2.00
2022-08-04T14:25:15.094Z,2.10
2022-08-04T14:27:51.636Z,2.20
2022-08-04T14:33:59.635Z,2.10
2022-08-04T14:35:59.045Z,1.98
2022-08-04T14:38:58.539Z,1.73
2022-08-04T14:41:43.681Z,2.00
2022-08-04T14:44:10.419Z,1.70
2022-08-04T14:46:53.837Z,2.15
2022-08-04T14:49:22.064Z,2.20
2022-08-04T14:51:55.727Z,1.98
2022-08-04T14:54:40.774Z,2.08
2022-08-04T14:57:08.913Z,2.00
2022-08-04T15:00:00.546Z,1.60
2022-08-04T15:02:29.902Z,1.80
2022-08-04T15:04:59.112Z,1.63
2022-08-04T15:07:26.800Z,1.90
2022-08-04T15:09:54.044Z,1.98
2022-08-04T15:12:21.159Z,1.90
2022-08-04T15:14:48.114Z,1.85
2022-08-04T15:17:29.286Z,2.28
2022-08-04T15:19:57.805Z,1.80
2022-08-04T15:22:25.080Z,2.40
2022-08-04T15:24:55.391Z,2.03
2022-08-04T15:27:30.650Z,1.83
2022-08-04T15:30:02.642Z,2.20
2022-08-04T15:32:37.016Z,1.70
2022-08-04T15:35:08.505Z,2.53
2022-08-04T15:38:02.419Z,2.25
2022-08-04T15:43:55.847Z,2.17
2022-08-04T15:46:44.345Z,1.90
2022-08-04T15:49:25.114Z,1.63
2022-08-04T15:52:12.527Z,2.08
2022-08-04T15:54:42.304Z,1.80
2022-08-04T15:57:10.236Z,1.90
2022-08-04T16:00:00.766Z,2.17
2022-08-04T16:02:33.743Z,1.70
2022-08-04T16:05:18.022Z,2.28
2022-08-04T16:07:58.590Z,2.30
2022-08-04T16:10:31.276Z,2.13
2022-08-04T16:13:03.559Z,1.73
2022-08-04T16:15:38.366Z,2.00
2022-08-04T16:18:07.644Z,1.90
2022-08-04T16:20:37.842Z,2.40
2022-08-04T16:23:53.579Z,1.83
2022-08-04T16:27:02.705Z,2.10
2022-08-04T16:29:38.177Z,1.75
2022-08-04T16:32:05.675Z,1.80
2022-08-04T16:34:49.593Z,2.08
2022-08-04T16:37:29.062Z,2.08
2022-08-04T16:40:36.569Z,2.20
2022-08-04T16:43:13.069Z,2.15
2022-08-04T16:46:02.699Z,1.80
2022-08-04T16:48:34.530Z,2.10
2022-08-04T16:51:06.917Z,2.05
2022-08-04T16:53:57.699Z,2.15
2022-08-04T16:56:35.411Z,2.10
2022-08-04T16:59:10.501Z,1.92
2022-08-04T17:01:44.655Z,2.08
2022-08-04T17:04:11.873Z,2.15
2022-08-04T17:06:40.787Z,2.10
2022-08-04T17:09:11.609Z,2.00
2022-08-04T17:11:42.485Z,2.33
2022-08-04T17:14:09.682Z,2.10
2022-08-04T17:16:39.051Z,1.90
2022-08-04T17:19:07.357Z,1.92
2022-08-04T17:21:47.563Z,2.00
2022-08-04T17:24:17.739Z,1.90
2022-08-04T17:26:51.749Z,2.10
2022-08-04T17:29:43.401Z,1.80
2022-08-04T17:32:16.978Z,1.92
2022-08-04T17:34:50.610Z,1.70
2022-08-04T17:37:39.703Z,2.05
2022-08-04T17:44:03.393Z,1.98
2022-08-04T17:46:28.090Z,1.60
2022-08-04T17:49:16.806Z,1.70
2022-08-04T17:52:04.841Z,1.90
2022-08-04T17:54:37.122Z,1.77
2022-08-04T17:57:21.060Z,2.53
2022-08-04T17:59:59.242Z,2.10
2022-08-04T18:02:32.977Z,2.15
2022-08-04T18:05:05.621Z,1.90
2022-08-04T18:08:35.335Z,2.20
2022-08-04T18:10:55.810Z,2.10
2022-08-04T18:13:27.660Z,2.15
2022-08-04T18:16:04.712Z,1.98
2022-08-04T18:18:32.063Z,1.90
2022-08-04T18:23:50.752Z,1.88
2022-08-04T18:26:23.653Z,2.08
2022-08-04T18:28:51.111Z,2.08
2022-08-04T18:31:21.529Z,1.75
2022-08-04T18:33:59.014Z,2.13
2022-08-04T18:36:35.436Z,2.08
2022-08-04T18:42:03.882Z,2.10
2022-08-04T18:44:52.081Z,1.92
2022-08-04T18:47:29.473Z,2.00
2022-08-04T18:50:40.193Z,2.22
2022-08-04T18:52:48.405Z,2.35
2022-08-04T18:55:55.548Z,2.33
2022-08-04T18:58:11.758Z,2.20
2022-08-04T19:00:48.366Z,2.42
2022-08-04T19:03:23.050Z,2.40
2022-08-04T19:05:51.470Z,2.40
2022-08-04T19:08:32.948Z,2.03
2022-08-04T19:11:35.308Z,2.30
2022-08-04T19:13:54.751Z,2.53
2022-08-04T19:16:26.305Z,2.45
2022-08-04T19:18:52.977Z,2.40
2022-08-04T19:21:59.703Z,2.20
2022-08-04T19:24:31.966Z,2.50
2022-08-04T19:27:06.712Z,2.50
2022-08-04T19:29:37.820Z,2.70
2022-08-04T19:32:14.664Z,2.25
2022-08-04T19:34:47.709Z,2.60
2022-08-04T19:37:57.688Z,2.78
2022-08-04T19:40:06.410Z,2.60
2022-08-04T19:45:04.980Z,2.90
2022-08-04T19:48:12.298Z,2.50
2022-08-04T19:50:24.050Z,2.90
2022-08-04T19:52:52.573Z,2.70
2022-08-04T19:55:22.581Z,2.65
2022-08-04T19:57:50.385Z,2.50
2022-08-04T20:00:33.154Z,2.30
2022-08-04T20:03:11.191Z,2.65
2022-08-04T20:05:55.201Z,2.50
2022-08-04T20:08:24.153Z,2.33
2022-08-04T20:10:52.370Z,2.20
2022-08-04T20:13:21.772Z,3.00
2022-08-04T20:15:55.548Z,2.60
2022-08-04T20:18:36.604Z,3.05
2022-08-04T20:21:19.502Z,2.95
2022-08-04T20:23:52.035Z,3.13
2022-08-04T20:26:19.165Z,3.22
2022-08-04T20:28:52.021Z,2.70
2022-08-04T20:31:19.501Z,2.90
2022-08-04T20:33:49.285Z,2.90
2022-08-04T20:36:22.119Z,2.72
2022-08-04T20:38:53.091Z,2.80
2022-08-04T20:41:21.708Z,2.60
2022-08-04T20:43:50.004Z,2.60
2022-08-04T20:46:28.665Z,3.22
2022-08-04T20:48:57.227Z,2.95
2022-08-04T20:51:31.954Z,3.00
2022-08-04T20:54:01.046Z,3.00
2022-08-04T20:56:31.001Z,3.38
2022-08-04T20:58:59.609Z,2.80
2022-08-04T21:01:27.041Z,3.08
2022-08-04T21:04:15.359Z,3.08
2022-08-04T21:06:55.885Z,2.80
2022-08-04T21:09:37.475Z,3.20
2022-08-04T21:12:09.553Z,3.03
2022-08-04T21:14:38.870Z,2.70
2022-08-04T21:17:07.161Z,2.70
2022-08-04T21:19:36.658Z,3.20
2022-08-04T21:24:37.343Z,2.97
2022-08-04T21:27:06.342Z,2.95
2022-08-04T21:29:36.985Z,2.35
2022-08-04T21:32:07.458Z,2.55
2022-08-04T21:34:38.559Z,3.05
2022-08-04T21:37:09.346Z,3.03
2022-08-04T21:39:43.915Z,2.90
2022-08-04T21:42:29.278Z,2.90
2022-08-04T21:44:57.919Z,2.90
2022-08-04T21:47:25.333Z,3.22
2022-08-04T21:49:56.743Z,3.45
2022-08-04T21:52:24.630Z,3.13
2022-08-04T21:54:54.085Z,3.47
2022-08-04T21:57:24.672Z,3.22
2022-08-04T21:59:52.343Z,3.40
2022-08-04T22:02:19.637Z,2.90
2022-08-04T22:04:48.434Z,3.00
2022-08-04T22:07:16.565Z,3.30
2022-08-04T22:10:00.036Z,2.95
2022-08-04T22:12:27.181Z,3.28
2022-08-04T22:14:57.603Z,3.15
2022-08-04T22:20:02.658Z,3.20
2022-08-04T22:22:29.987Z,3.30
2022-08-04T22:25:01.685Z,3.33
2022-08-04T22:27:47.606Z,3.20
2022-08-04T22:30:17.760Z,2.90
2022-08-04T22:32:48.490Z,3.08
2022-08-04T22:35:36.629Z,3.47
2022-08-04T22:38:26.854Z,3.30
2022-08-04T22:41:00.197Z,3.03
2022-08-04T22:43:32.328Z,2.90
2022-08-04T22:46:01.815Z,3.20
2022-08-04T22:48:32.175Z,3.08
2022-08-04T22:51:00.115Z,3.17
2022-08-04T22:53:27.382Z,3.15
2022-08-04T22:56:06.493Z,3.20
2022-08-04T22:58:36.445Z,3.50
2022-08-04T23:01:07.888Z,3.00
2022-08-04T23:03:37.374Z,3.30
2022-08-04T23:06:10.946Z,3.05
2022-08-04T23:08:46.363Z,3.50
2022-08-04T23:11:14.843Z,2.60
2022-08-04T23:13:42.104Z,3.03
2022-08-04T23:16:09.873Z,3.20
2022-08-04T23:18:41.872Z,2.90
2022-08-04T23:21:10.410Z,3.30
2022-08-04T23:23:47.870Z,3.20
2022-08-04T23:26:27.285Z,3.05
2022-08-04T23:28:54.725Z,3.17
2022-08-04T23:31:21.416Z,3.60
2022-08-04T23:33:51.467Z,3.20
2022-08-04T23:36:29.738Z,3.35
2022-08-04T23:39:07.274Z,3.15
2022-08-04T23:41:55.255Z,3.80
2022-08-04T23:44:25.044Z,3.20
2022-08-04T23:47:03.952Z,3.30
2022-08-04T23:49:43.866Z,3.63
2022-08-04T23:52:23.145Z,3.33
2022-08-04T23:54:56.504Z,3.50
2022-08-04T23:57:25.470Z,3.58
2022-08-04T23:59:58.703Z,3.90
